Aviation Digital Data Service (ADDS)

Output produced by METARs form (1748 UTC 21 September 2019)
found at http://aviationweather.gov/metar/data/
 
KHOU 211653Z 13009KT 10SM FEW035 SCT050 BKN070 31/22 A3008 RMK AO2 SLP190 T03110222
KHOU 211720Z 2118/2218 13009KT P6SM SCT035 BKN070 
     FM220400 VRB04KT P6SM FEW025 SCT120 
     FM221500 14007KT P6SM BKN025